Etusivu
METAR-TAF:

METAR-TAF

Lentoasemat :

Kristiansund, Norja

Leveyspiiri: 63-07N, Pituuspiiri: 007-50E, korkeus merenpinnasta: 6 m

Tämänhetkinen sää

Tämä raportti tehtiin 23 minuuttia sitten, kello 06.20 UTC
Tuuli 1 kn eri suunnista
Lämpötila 11°C
Kosteus 87%
Ilmanpaine 1013 hPa
Näkyvyys 10 km tai enemmän
Muutamia pilviä 700 ft:n korkeudessa

METAR: ENKB 240620Z VRB01KT 9999 FEW007 11/09 Q1013 RMK WIND 745FT VRB03KT

Aika: 08:43 (06:43 UTC)

Sääennuste

Tämä raportti tehtiin 1 tunti ja 43 minuuttia sitten, kello 05.00 UTC
Ennuste voimassa 24. päivästä klo 06 UTC - 24. päivään klo 15 UTC
Tuuli 5 kn pohjoisesta/koillisesta
Näkyvyys 10 km tai enemmän
Muutamia pilviä 1500 ft:n korkeudessa
Hajonneita pilviä 5000 ft:n korkeudessa

TAF: ENKB 240500Z 2406/2415 02005KT 9999 FEW015 BKN050

Säähavainnot ja -ennusteet yli 4000 lentoasemalta (METAR- ja TAF-raportit).

Käytössä olevat sääasemat on merkitty karttaan keltaisilla ja punaisilla pisteillä.

Aseta hiiri pisteen päälle nähdäksesi sääaseman nimen.

Klikkaa sitten nähdäksesi säähavainnot ja -ennusteet.

Kartan vaihtaminen: klikkaa mustalla rastilla varustettuja vihreitä pisteitä, niin voit zoomata sisään; viivalla varustettua vihreää pistettä, niin voit zoomata ulos tai vihreitä nuolia, niin pääset viereisille kartoille.


METAR-TAF: